Time;durP1;ratioP1;P1;durP2;ratioP2;P2;SDS_P1;SDS_P2;PMS_P1;PMS_P2;Temp;Humidity;BMP_temperature;BMP_pressure;BME280_temperature;BME280_humidity;BME280_pressure;Samples;Min_cycle;Max_cycle;Signal;HPM_P1;HPM_P2
2021/12/02 00:01:05;;;;;;;3.23;1.57;;;;;;;4.52;100.00;97217.66;5067777;28;20274;-84
2021/12/02 00:03:35;;;;;;;5.10;2.20;;;;;;;4.50;100.00;97229.22;5068246;28;20220;-85
2021/12/02 00:06:04;;;;;;;8.40;2.13;;;;;;;4.49;100.00;97224.94;5068748;28;20209;-85
2021/12/02 00:08:32;;;;;;;4.43;1.57;;;;;;;4.56;100.00;97224.38;5071787;28;20204;-85
2021/12/02 00:11:03;;;;;;;6.67;2.03;;;;;;;4.60;100.00;97227.63;5067229;28;20204;-85
2021/12/02 00:13:39;;;;;;;7.53;2.00;;;;;;;4.71;100.00;97238.19;5072343;28;20204;-84
2021/12/02 00:16:18;;;;;;;6.30;2.00;;;;;;;4.70;100.00;97238.28;5070981;28;20192;-85
2021/12/02 00:21:32;;;;;;;6.13;2.23;;;;;;;4.70;100.00;97248.78;5069395;28;20207;-85
2021/12/02 00:24:03;;;;;;;7.23;2.20;;;;;;;4.80;100.00;97249.78;5070356;28;20216;-85
2021/12/02 00:26:37;;;;;;;6.87;1.97;;;;;;;4.93;100.00;97248.00;5069521;28;20200;-85
2021/12/02 00:29:07;;;;;;;3.43;1.87;;;;;;;4.97;100.00;97249.44;5072358;28;20200;-85
2021/12/02 00:31:39;;;;;;;5.67;1.93;;;;;;;4.94;100.00;97251.44;5068702;28;20200;-85
2021/12/02 00:34:09;;;;;;;5.20;1.93;;;;;;;4.94;100.00;97246.19;5071055;28;20207;-85
2021/12/02 00:36:39;;;;;;;4.07;1.90;;;;;;;4.79;100.00;97245.50;5067333;28;20188;-85
2021/12/02 00:39:12;;;;;;;4.33;1.93;;;;;;;4.74;100.00;97252.88;5065833;28;20192;-85
2021/12/02 00:41:43;;;;;;;7.10;1.83;;;;;;;4.72;100.00;97260.81;5066436;28;20196;-85
2021/12/02 00:44:13;;;;;;;3.90;1.80;;;;;;;4.80;100.00;97255.03;5065076;28;20222;-85
2021/12/02 00:46:43;;;;;;;8.13;2.17;;;;;;;4.74;100.00;97261.56;5066548;28;20208;-85
2021/12/02 00:49:15;;;;;;;6.90;2.13;;;;;;;4.72;100.00;97258.19;5069424;28;20230;-85
2021/12/02 00:51:49;;;;;;;5.00;1.97;;;;;;;4.72;100.00;97258.19;4988673;28;20202;-85
2021/12/02 00:54:26;;;;;;;6.40;2.27;;;;;;;4.74;100.00;97264.19;4991754;28;20198;-85
2021/12/02 00:56:56;;;;;;;6.57;2.03;;;;;;;4.58;100.00;97274.09;4986609;28;20188;-85
2021/12/02 00:59:30;;;;;;;6.87;2.10;;;;;;;4.64;100.00;97272.81;4992025;28;20721;-85
2021/12/02 01:01:59;;;;;;;9.00;1.80;;;;;;;4.70;100.00;97272.38;4990830;28;20191;-85
2021/12/02 01:04:29;;;;;;;6.00;1.87;;;;;;;4.72;100.00;97278.34;4990583;28;20310;-85
2021/12/02 01:06:57;;;;;;;5.53;1.73;;;;;;;4.62;100.00;97275.53;4986271;28;20210;-85
2021/12/02 01:09:27;;;;;;;14.83;7.07;;;;;;;4.48;100.00;97270.44;4990480;28;20650;-85
2021/12/02 01:11:57;;;;;;;4.50;2.43;;;;;;;4.47;100.00;97281.88;4983243;28;20203;-85
2021/12/02 01:14:27;;;;;;;2.97;2.30;;;;;;;4.58;100.00;97290.66;4993141;28;20331;-86
2021/12/02 01:16:56;;;;;;;6.77;2.40;;;;;;;4.57;100.00;97280.28;5048352;28;20204;-85
2021/12/02 01:19:24;;;;;;;4.07;2.13;;;;;;;4.43;100.00;97275.97;5071080;28;20204;-85
2021/12/02 01:21:55;;;;;;;5.37;2.40;;;;;;;4.45;100.00;97279.34;5067443;28;20196;-85
2021/12/02 01:24:25;;;;;;;4.63;2.03;;;;;;;4.45;100.00;97279.34;5070780;28;20220;-85
2021/12/02 01:26:55;;;;;;;4.10;2.10;;;;;;;4.56;100.00;97283.84;5068779;28;20219;-85
2021/12/02 01:29:25;;;;;;;3.13;2.10;;;;;;;4.44;100.00;97284.69;5066897;28;20200;-85
2021/12/02 01:31:59;;;;;;;2.97;2.10;;;;;;;4.62;100.00;97280.78;5073187;28;20188;-85
2021/12/02 01:34:30;;;;;;;5.70;2.70;;;;;;;4.47;100.00;97284.47;5063076;28;20195;-85
2021/12/02 01:36:58;;;;;;;6.20;2.70;;;;;;;4.61;100.00;97297.44;5066554;28;20204;-85
2021/12/02 01:39:28;;;;;;;6.30;2.57;;;;;;;4.65;100.00;97298.09;5073675;28;20194;-85
2021/12/02 01:41:58;;;;;;;6.90;2.70;;;;;;;4.34;100.00;97300.19;5072195;28;20201;-85
2021/12/02 01:44:29;;;;;;;6.93;2.60;;;;;;;4.33;100.00;97309.00;5070933;28;20228;-85
2021/12/02 01:47:00;;;;;;;7.70;2.77;;;;;;;4.33;100.00;97306.38;5070896;28;20190;-85
2021/12/02 01:49:33;;;;;;;10.30;2.93;;;;;;;4.29;100.00;97307.56;5068512;28;20254;-85
2021/12/02 01:52:05;;;;;;;7.03;2.57;;;;;;;4.13;100.00;97312.97;5073561;28;20670;-86
2021/12/02 01:54:39;;;;;;;5.73;2.90;;;;;;;4.10;100.00;97317.59;5070395;28;20211;-85
2021/12/02 01:57:08;;;;;;;5.30;2.90;;;;;;;3.87;100.00;97316.53;5067603;28;20240;-85
2021/12/02 01:59:39;;;;;;;3.33;2.50;;;;;;;3.86;100.00;97312.22;5073375;28;20198;-85
2021/12/02 02:02:11;;;;;;;7.70;2.70;;;;;;;3.81;100.00;97309.91;5070309;28;20196;-85
2021/12/02 02:04:40;;;;;;;9.50;3.00;;;;;;;3.72;100.00;97311.34;5073339;28;20254;-84
2021/12/02 02:07:14;;;;;;;6.07;2.97;;;;;;;3.71;100.00;97314.94;5073293;28;20188;-85
2021/12/02 02:09:44;;;;;;;7.00;3.20;;;;;;;3.87;100.00;97306.06;5067837;28;20207;-85
2021/12/02 02:12:15;;;;;;;5.87;3.03;;;;;;;3.94;100.00;97308.16;5066552;28;20211;-85
2021/12/02 02:14:45;;;;;;;10.20;3.60;;;;;;;4.04;100.00;97310.97;5070459;28;20198;-85
2021/12/02 02:17:20;;;;;;;6.10;3.53;;;;;;;4.15;100.00;97308.50;5066150;28;20238;-85
2021/12/02 02:19:48;;;;;;;12.50;3.87;;;;;;;4.23;100.00;97307.97;5008993;28;20209;-85
2021/12/02 02:22:21;;;;;;;7.67;3.43;;;;;;;4.26;100.00;97310.38;5016528;28;20190;-85
2021/12/02 02:24:49;;;;;;;8.87;3.40;;;;;;;4.25;100.00;97313.97;5007735;28;20243;-85
2021/12/02 02:27:19;;;;;;;7.83;3.17;;;;;;;4.36;100.00;97311.44;5010254;28;20198;-85
2021/12/02 02:29:48;;;;;;;9.27;3.10;;;;;;;4.40;100.00;97320.75;5006697;28;20736;-85
2021/12/02 02:32:16;;;;;;;8.03;3.40;;;;;;;4.34;100.00;97317.69;5007344;28;20206;-84
2021/12/02 02:34:44;;;;;;;8.37;2.80;;;;;;;4.39;100.00;97313.00;5001051;28;20198;-85
2021/12/02 02:37:13;;;;;;;6.50;2.83;;;;;;;4.38;100.00;97304.31;5019035;28;20197;-85
2021/12/02 02:39:43;;;;;;;8.00;2.93;;;;;;;4.44;100.00;97308.25;5070240;28;20196;-85
2021/12/02 02:42:11;;;;;;;6.87;2.80;;;;;;;4.42;100.00;97308.38;5066405;28;20656;-85
2021/12/02 02:44:39;;;;;;;7.73;2.70;;;;;;;4.26;100.00;97313.84;5066287;28;20246;-84
2021/12/02 02:47:07;;;;;;;8.20;2.63;;;;;;;4.28;100.00;97304.09;5071915;28;20189;-85
2021/12/02 02:49:35;;;;;;;7.50;2.13;;;;;;;4.32;100.00;97313.41;5072959;28;20212;-85
2021/12/02 02:52:05;;;;;;;10.60;2.43;;;;;;;4.27;100.00;97318.13;5073999;28;20196;-84
2021/12/02 02:54:33;;;;;;;6.07;2.27;;;;;;;4.32;100.00;97316.03;5070304;28;20198;-84
2021/12/02 02:57:05;;;;;;;8.00;2.50;;;;;;;4.39;100.00;97323.47;5072999;28;20200;-85
2021/12/02 02:59:43;;;;;;;8.67;2.70;;;;;;;4.41;100.00;97311.94;5022676;28;20204;-85
2021/12/02 03:02:22;;;;;;;10.03;2.37;;;;;;;4.40;100.00;97301.56;4956660;29;20208;-85
2021/12/02 03:04:59;;;;;;;6.03;2.20;;;;;;;4.37;100.00;97305.25;4950359;29;20268;-85
2021/12/02 03:07:33;;;;;;;4.73;2.17;;;;;;;4.39;100.00;97298.13;4954103;29;20192;-85
2021/12/02 03:10:10;;;;;;;7.10;2.43;;;;;;;4.18;100.00;97297.81;4950398;28;20227;-85
2021/12/02 03:12:43;;;;;;;8.33;2.37;;;;;;;4.14;100.00;97298.09;4949313;29;20192;-85
2021/12/02 03:17:57;;;;;;;5.60;2.17;;;;;;;4.20;100.00;97306.41;4956106;29;20196;-85
2021/12/02 03:20:25;;;;;;;8.83;2.93;;;;;;;4.24;100.00;97297.38;4956407;29;20204;-85
2021/12/02 03:22:56;;;;;;;8.53;2.70;;;;;;;4.25;100.00;97293.84;4953976;29;20212;-85
2021/12/02 03:25:25;;;;;;;7.53;2.40;;;;;;;4.27;100.00;97301.59;4879567;29;20226;-85
2021/12/02 03:27:57;;;;;;;10.77;2.47;;;;;;;4.31;100.00;97305.66;4916128;29;20249;-85
2021/12/02 03:30:26;;;;;;;6.70;2.30;;;;;;;4.41;100.00;97301.47;4918135;29;20197;-85
2021/12/02 03:32:54;;;;;;;5.33;2.17;;;;;;;4.35;100.00;97299.28;4941587;28;20196;-85
2021/12/02 03:35:22;;;;;;;8.20;2.60;;;;;;;4.08;100.00;97296.75;4991132;28;20265;-85
2021/12/02 03:37:51;;;;;;;10.57;2.43;;;;;;;4.07;100.00;97299.47;4992729;28;20226;-85
2021/12/02 03:40:20;;;;;;;9.53;3.00;;;;;;;4.16;100.00;97302.31;4989580;28;20199;-85
2021/12/02 03:42:51;;;;;;;7.00;2.40;;;;;;;4.01;100.00;97301.56;5005960;28;20196;-85
2021/12/02 03:45:41;;;;;;;7.67;2.40;;;;;;;3.97;100.00;97301.88;5033989;28;20225;-85
2021/12/02 03:48:10;;;;;;;10.30;2.70;;;;;;;3.93;100.00;97303.00;5034683;28;20553;-85
2021/12/02 03:50:39;;;;;;;9.90;3.50;;;;;;;3.91;100.00;97302.28;5033828;28;20224;-85
2021/12/02 03:53:07;;;;;;;7.63;2.70;;;;;;;4.00;100.00;97299.06;5033945;28;20189;-85
2021/12/02 03:55:35;;;;;;;8.53;2.70;;;;;;;4.03;100.00;97294.44;5027672;28;20221;-85
2021/12/02 03:58:04;;;;;;;8.60;2.73;;;;;;;4.08;100.00;97288.06;5029680;28;20653;-85
2021/12/02 04:00:32;;;;;;;5.40;2.80;;;;;;;4.09;100.00;97285.34;5030505;28;20236;-85
2021/12/02 04:03:02;;;;;;;5.93;2.70;;;;;;;4.12;100.00;97285.13;5040444;28;20196;-86
2021/12/02 04:05:30;;;;;;;10.00;2.80;;;;;;;4.06;100.00;97287.34;5068936;28;20275;-86
2021/12/02 04:07:59;;;;;;;8.60;2.80;;;;;;;4.15;100.00;97289.31;5072807;28;20185;-86
2021/12/02 04:10:27;;;;;;;8.33;2.87;;;;;;;4.23;100.00;97292.25;5065233;28;20196;-85
2021/12/02 04:13:04;;;;;;;9.37;2.57;;;;;;;4.33;100.00;97288.03;5072589;28;20193;-85
2021/12/02 04:15:36;;;;;;;11.30;2.70;;;;;;;4.29;100.00;97299.69;5069235;28;20659;-85
2021/12/02 04:18:06;;;;;;;5.70;2.50;;;;;;;4.27;100.00;97285.84;5013515;28;20206;-85
2021/12/02 04:20:36;;;;;;;7.60;2.50;;;;;;;4.24;100.00;97284.28;5001702;28;20261;-85
2021/12/02 04:23:05;;;;;;;9.13;3.00;;;;;;;4.09;100.00;97281.88;5007356;28;20201;-85
2021/12/02 04:25:33;;;;;;;8.07;3.10;;;;;;;4.02;100.00;97284.06;5007697;28;20638;-85
2021/12/02 04:28:02;;;;;;;7.67;2.93;;;;;;;4.08;100.00;97282.81;5009137;28;20194;-85
2021/12/02 04:30:30;;;;;;;7.47;2.87;;;;;;;3.97;100.00;97276.53;5006910;28;20202;-85
2021/12/02 04:33:00;;;;;;;5.67;2.80;;;;;;;4.01;100.00;97280.59;5010841;28;20200;-85
2021/12/02 04:35:30;;;;;;;8.30;2.70;;;;;;;4.07;100.00;97282.00;5020053;28;20214;-85
2021/12/02 04:37:59;;;;;;;12.40;3.33;;;;;;;3.97;100.00;97279.16;4990065;28;20643;-85
2021/12/02 04:40:27;;;;;;;11.27;3.07;;;;;;;4.02;100.00;97284.06;4988199;28;20677;-85
2021/12/02 04:42:56;;;;;;;12.17;2.80;;;;;;;4.02;100.00;97271.81;4993605;28;20206;-85
2021/12/02 04:45:24;;;;;;;9.03;3.63;;;;;;;4.00;100.00;97273.69;4959147;28;20195;-85
2021/12/02 04:47:52;;;;;;;7.33;2.33;;;;;;;4.05;100.00;97270.75;4992196;28;20225;-85
2021/12/02 04:50:24;;;;;;;6.67;3.10;;;;;;;4.06;100.00;97275.06;4988834;28;20239;-86
2021/12/02 04:52:57;;;;;;;5.37;2.60;;;;;;;4.09;100.00;97271.41;4993517;28;20201;-85
2021/12/02 04:55:25;;;;;;;10.37;2.80;;;;;;;4.02;100.00;97268.34;5006623;28;20188;-85
2021/12/02 04:57:53;;;;;;;8.33;2.40;;;;;;;4.00;100.00;97273.69;5066761;28;20219;-85
2021/12/02 05:00:23;;;;;;;5.67;2.70;;;;;;;3.97;100.00;97267.84;5068147;28;20245;-85
2021/12/02 05:02:53;;;;;;;5.87;2.47;;;;;;;4.00;100.00;97276.31;5067590;28;20200;-85
2021/12/02 05:05:22;;;;;;;10.33;2.53;;;;;;;4.02;100.00;97268.34;5069810;28;20185;-85
2021/12/02 05:07:53;;;;;;;7.40;2.50;;;;;;;4.06;100.00;97272.47;5067462;28;20216;-84
2021/12/02 05:10:24;;;;;;;8.70;2.23;;;;;;;4.16;100.00;97270.88;5066491;28;20199;-85
2021/12/02 05:12:52;;;;;;;7.20;2.60;;;;;;;4.09;100.00;97274.84;5071219;28;20204;-85
2021/12/02 05:15:20;;;;;;;7.93;2.33;;;;;;;4.23;100.00;97272.13;5070413;28;20199;-84
2021/12/02 05:17:50;;;;;;;5.30;2.13;;;;;;;4.21;100.00;97271.38;5067002;28;20204;-84
2021/12/02 05:20:19;;;;;;;6.27;2.60;;;;;;;4.21;100.00;97278.41;5069769;28;20188;-85
2021/12/02 05:22:48;;;;;;;7.37;2.10;;;;;;;4.27;100.00;97275.38;5061255;28;20204;-85
2021/12/02 05:25:17;;;;;;;4.40;2.10;;;;;;;4.23;100.00;97273.91;5070837;28;20211;-85
2021/12/02 05:27:47;;;;;;;9.53;2.00;;;;;;;4.27;100.00;97275.38;5069329;28;20705;-84
2021/12/02 05:30:15;;;;;;;6.60;2.20;;;;;;;4.30;100.00;97276.00;5066828;28;20190;-84
2021/12/02 05:32:43;;;;;;;5.20;2.00;;;;;;;4.23;100.00;97279.13;5066390;28;20188;-83
2021/12/02 05:35:11;;;;;;;7.37;2.00;;;;;;;4.37;100.00;97280.81;5068671;28;20257;-85
2021/12/02 05:37:39;;;;;;;5.70;1.70;;;;;;;4.31;100.00;97277.66;5073986;28;20192;-85
2021/12/02 05:40:09;;;;;;;9.30;2.37;;;;;;;4.25;100.00;97277.28;5069159;28;20200;-84
2021/12/02 05:42:38;;;;;;;8.07;2.37;;;;;;;4.33;100.00;97277.56;5065886;28;20192;-84
2021/12/02 05:45:09;;;;;;;6.63;2.10;;;;;;;4.28;100.00;97277.88;5066569;28;20184;-84
2021/12/02 05:47:39;;;;;;;6.93;2.50;;;;;;;4.34;100.00;97283.63;5074086;28;20234;-85
2021/12/02 05:50:07;;;;;;;6.10;2.20;;;;;;;4.40;100.00;97286.69;5070715;28;20221;-85
2021/12/02 05:52:36;;;;;;;6.50;2.50;;;;;;;4.36;100.00;97282.63;5068306;28;20215;-85
2021/12/02 05:55:05;;;;;;;6.03;3.40;;;;;;;4.32;100.00;97302.94;5070775;28;20207;-84
2021/12/02 05:57:34;;;;;;;10.30;4.20;;;;;;;4.23;100.00;97308.78;5061727;28;20196;-85
2021/12/02 06:00:05;;;;;;;6.90;3.50;;;;;;;3.99;100.00;97311.31;5069048;28;20213;-84
2021/12/02 06:02:36;;;;;;;6.50;2.33;;;;;;;3.64;100.00;97307.56;5067784;28;20207;-84
2021/12/02 06:05:07;;;;;;;2.67;1.80;;;;;;;3.51;100.00;97311.94;5073336;28;20227;-84
2021/12/02 06:07:37;;;;;;;2.10;1.10;;;;;;;3.21;100.00;97312.16;4991869;28;20222;-85
2021/12/02 06:10:06;;;;;;;1.27;1.10;;;;;;;3.16;100.00;97312.44;4991157;28;20211;-86
2021/12/02 06:12:34;;;;;;;1.73;1.10;;;;;;;3.01;100.00;97305.56;4990777;28;20191;-85
2021/12/02 06:15:03;;;;;;;4.40;1.27;;;;;;;2.97;100.00;97309.31;4987877;28;20205;-85
2021/12/02 06:17:32;;;;;;;2.30;1.30;;;;;;;2.93;100.00;97306.06;4992015;28;20227;-85
2021/12/02 06:20:02;;;;;;;3.50;1.80;;;;;;;2.99;100.00;97305.69;4989761;28;20218;-85
2021/12/02 06:22:30;;;;;;;3.17;1.73;;;;;;;3.01;100.00;97303.81;4996002;28;20199;-85
2021/12/02 06:25:17;;;;;;;2.90;1.80;;;;;;;3.06;100.00;97301.72;4989308;28;20639;-84
2021/12/02 06:27:46;;;;;;;3.87;1.77;;;;;;;3.11;100.00;97314.50;4995660;28;20223;-85
2021/12/02 06:30:17;;;;;;;4.43;1.87;;;;;;;3.14;100.00;97304.69;4993438;28;20195;-85
2021/12/02 06:32:45;;;;;;;3.10;1.83;;;;;;;3.14;100.00;97312.53;5050700;28;20414;-85
2021/12/02 06:35:16;;;;;;;3.53;1.77;;;;;;;3.22;100.00;97312.03;5077196;28;20200;-85
2021/12/02 06:37:45;;;;;;;2.73;1.67;;;;;;;3.07;100.00;97313.00;5077167;28;20199;-85
2021/12/02 06:40:14;;;;;;;3.77;1.33;;;;;;;3.06;100.00;97316.56;5077185;28;20201;-84
2021/12/02 06:42:43;;;;;;;1.77;1.30;;;;;;;2.93;100.00;97310.44;5076404;28;20208;-85
2021/12/02 06:45:11;;;;;;;1.67;1.40;;;;;;;2.84;100.00;97312.69;5074328;28;20189;-85
2021/12/02 06:47:45;;;;;;;3.17;1.70;;;;;;;2.89;100.00;97320.25;5074649;28;20214;-85
2021/12/02 06:50:18;;;;;;;5.83;1.50;;;;;;;3.02;100.00;97323.78;5072029;28;20220;-84
2021/12/02 06:52:49;;;;;;;4.93;1.80;;;;;;;3.07;100.00;97328.69;5070315;28;20212;-85
2021/12/02 06:55:19;;;;;;;2.23;1.37;;;;;;;3.07;100.00;97333.94;5025864;28;20188;-84
2021/12/02 06:57:47;;;;;;;4.13;1.80;;;;;;;3.17;100.00;97342.88;5074573;28;20204;-84
2021/12/02 07:00:18;;;;;;;5.00;2.00;;;;;;;3.10;100.00;97341.59;5072851;28;20199;-85
2021/12/02 07:02:47;;;;;;;5.27;2.20;;;;;;;3.17;100.00;97348.09;5074392;28;20313;-84
2021/12/02 07:05:19;;;;;;;3.77;2.47;;;;;;;3.08;100.00;97354.75;5073886;28;20200;-85
2021/12/02 07:07:48;;;;;;;3.03;2.43;;;;;;;3.08;100.00;97346.91;5076449;28;20212;-84
2021/12/02 07:10:20;;;;;;;6.47;2.50;;;;;;;3.23;100.00;97354.72;5072700;28;20203;-86
2021/12/02 07:12:53;;;;;;;4.90;2.87;;;;;;;3.19;100.00;97361.09;5027003;28;20192;-85
2021/12/02 07:15:27;;;;;;;5.30;2.93;;;;;;;3.34;100.00;97360.97;5072651;28;20226;-84
2021/12/02 07:17:57;;;;;;;5.20;3.00;;;;;;;3.42;100.00;97361.31;5074004;28;20196;-84
2021/12/02 07:20:30;;;;;;;4.37;2.60;;;;;;;3.38;100.00;97356.38;5069216;28;20666;-84
2021/12/02 07:22:59;;;;;;;6.27;3.10;;;;;;;3.28;100.00;97361.38;5072446;28;20200;-83
2021/12/02 07:25:28;;;;;;;6.60;2.90;;;;;;;3.27;100.00;97366.66;5071177;28;20207;-83
2021/12/02 07:27:56;;;;;;;3.93;2.70;;;;;;;3.24;100.00;97375.56;5073696;28;20223;-83
2021/12/02 07:30:25;;;;;;;4.40;2.87;;;;;;;3.20;100.00;97373.25;5072058;28;20202;-84
2021/12/02 07:32:55;;;;;;;6.60;3.20;;;;;;;3.21;100.00;97372.31;5033066;28;20204;-84
2021/12/02 07:35:24;;;;;;;4.57;2.80;;;;;;;3.35;100.00;97387.97;5071377;28;20259;-84
2021/12/02 07:37:58;;;;;;;5.33;3.30;;;;;;;3.25;100.00;97376.41;5069385;28;20200;-84
2021/12/02 07:40:30;;;;;;;9.57;3.63;;;;;;;3.34;100.00;97383.66;5075051;28;20211;-84
2021/12/02 07:43:00;;;;;;;6.03;3.77;;;;;;;3.37;100.00;97388.69;5064308;28;20250;-83
2021/12/02 07:45:35;;;;;;;7.40;4.00;;;;;;;3.23;100.00;97381.72;5072032;28;20231;-84
2021/12/02 07:48:06;;;;;;;7.67;3.93;;;;;;;3.37;100.00;97380.84;5071234;28;20228;-84
2021/12/02 07:50:36;;;;;;;6.70;3.80;;;;;;;3.55;100.00;97386.69;5072786;28;20717;-83
2021/12/02 07:53:09;;;;;;;6.73;3.67;;;;;;;3.42;100.00;97389.25;5068682;28;20287;-83
2021/12/02 07:55:39;;;;;;;5.47;3.67;;;;;;;3.61;100.00;97395.00;5070213;28;20193;-83
2021/12/02 07:58:10;;;;;;;6.17;3.60;;;;;;;3.65;100.00;97391.22;5075871;28;20200;-84
2021/12/02 08:00:41;;;;;;;6.87;3.87;;;;;;;3.48;100.00;97390.66;5071201;28;20188;-84
2021/12/02 08:03:12;;;;;;;7.13;3.40;;;;;;;3.41;100.00;97387.59;5073039;28;20643;-84
2021/12/02 08:05:42;;;;;;;4.50;3.30;;;;;;;3.41;100.00;97380.56;5073035;28;20214;-85
2021/12/02 08:08:13;;;;;;;6.87;3.40;;;;;;;3.25;100.00;97387.69;5072434;28;20217;-84
2021/12/02 08:10:41;;;;;;;5.57;3.27;;;;;;;3.24;100.00;97396.50;5074249;28;20196;-84
2021/12/02 08:13:09;;;;;;;4.80;2.83;;;;;;;3.38;100.00;97401.69;5068111;28;20232;-84
2021/12/02 08:15:38;;;;;;;4.80;2.60;;;;;;;3.23;100.00;97413.13;5075431;28;20192;-85
2021/12/02 08:18:06;;;;;;;4.40;2.83;;;;;;;3.26;100.00;97405.06;5072408;28;20193;-85
2021/12/02 08:20:39;;;;;;;4.50;2.20;;;;;;;3.39;100.00;97397.31;5075552;28;20287;-83
2021/12/02 08:23:07;;;;;;;4.63;2.50;;;;;;;3.43;100.00;97401.41;5070766;28;20219;-84
2021/12/02 08:25:37;;;;;;;2.77;2.20;;;;;;;3.49;100.00;97410.66;5065071;28;20204;-84
2021/12/02 08:28:06;;;;;;;3.80;2.33;;;;;;;3.53;100.00;97414.75;5072103;28;20265;-84
2021/12/02 08:30:37;;;;;;;4.57;2.30;;;;;;;3.32;100.00;97423.00;5068785;28;20254;-84
2021/12/02 08:33:07;;;;;;;3.37;1.90;;;;;;;3.46;100.00;97416.91;5067851;28;20203;-84
2021/12/02 08:35:36;;;;;;;4.63;2.10;;;;;;;3.43;100.00;97424.94;5075067;28;20200;-84
2021/12/02 08:38:10;;;;;;;2.53;2.17;;;;;;;3.59;100.00;97424.81;5069754;28;20201;-83
2021/12/02 08:40:42;;;;;;;3.73;2.00;;;;;;;3.59;100.00;97422.22;5070663;28;20192;-83
2021/12/02 08:43:14;;;;;;;6.07;2.40;;;;;;;3.57;100.00;97435.41;5065790;28;20211;-83
2021/12/02 08:45:45;;;;;;;2.83;2.00;;;;;;;3.69;100.00;97428.53;5071910;28;20197;-84
2021/12/02 08:48:14;;;;;;;4.47;2.60;;;;;;;3.65;100.00;97446.19;5068897;28;20228;-84
2021/12/02 08:50:44;;;;;;;3.47;2.43;;;;;;;3.64;100.00;97448.91;5074610;28;20232;-84
2021/12/02 08:53:15;;;;;;;5.07;2.37;;;;;;;3.65;100.00;97443.56;5068461;28;20204;-83
2021/12/02 08:55:46;;;;;;;5.53;2.27;;;;;;;3.62;100.00;97456.88;5070941;28;20196;-83
2021/12/02 08:58:16;;;;;;;3.50;2.40;;;;;;;3.72;100.00;97452.72;5074631;28;20257;-84
2021/12/02 09:00:46;;;;;;;6.90;2.57;;;;;;;3.77;100.00;97457.69;5067775;28;20191;-83
2021/12/02 09:03:16;;;;;;;5.17;2.47;;;;;;;3.72;100.00;97455.34;5070139;28;20195;-83
2021/12/02 09:05:45;;;;;;;5.00;2.53;;;;;;;3.75;100.00;97459.53;5069983;28;20193;-84
2021/12/02 09:08:15;;;;;;;7.80;5.20;;;;;;;3.67;100.00;97460.06;5071732;28;20203;-84
2021/12/02 09:10:45;;;;;;;4.57;3.10;;;;;;;3.81;100.00;97460.94;5067578;28;20200;-84
2021/12/02 09:13:13;;;;;;;3.53;2.63;;;;;;;3.80;100.00;97469.72;5071322;28;20208;-84
2021/12/02 09:15:41;;;;;;;4.47;2.83;;;;;;;3.78;100.00;97466.38;5066939;28;20188;-83
2021/12/02 09:18:10;;;;;;;6.40;3.10;;;;;;;3.83;100.00;97467.75;5069357;28;20192;-84
2021/12/02 09:20:42;;;;;;;4.47;3.07;;;;;;;3.71;100.00;97468.53;5072661;28;20227;-83
2021/12/02 09:23:13;;;;;;;2.97;2.67;;;;;;;3.66;100.00;97465.34;5072401;28;20663;-83
2021/12/02 09:25:41;;;;;;;4.20;2.90;;;;;;;3.68;100.00;97471.34;5064747;28;20652;-84
2021/12/02 09:28:12;;;;;;;7.27;3.87;;;;;;;3.66;100.00;97481.91;5074080;28;20199;-84
2021/12/02 09:30:45;;;;;;;9.00;6.50;;;;;;;3.59;100.00;97485.03;5030068;28;20248;-84
2021/12/02 09:33:14;;;;;;;4.53;2.93;;;;;;;3.60;100.00;97489.31;5024034;28;20201;-84
2021/12/02 09:35:44;;;;;;;8.73;7.30;;;;;;;3.57;100.00;97482.50;5027539;28;20201;-83
2021/12/02 09:38:12;;;;;;;26.23;23.33;;;;;;;3.40;100.00;97488.78;5031968;28;20241;-84
2021/12/02 09:40:41;;;;;;;5.40;3.83;;;;;;;3.52;100.00;97487.19;5026511;28;20193;-84
2021/12/02 09:43:16;;;;;;;2.37;2.03;;;;;;;3.51;100.00;97487.28;5029333;28;20200;-84
2021/12/02 09:45:45;;;;;;;4.33;2.57;;;;;;;3.37;100.00;97494.19;5029141;28;20200;-83
2021/12/02 09:48:14;;;;;;;5.33;2.43;;;;;;;3.34;100.00;97489.16;5033711;28;20196;-83
2021/12/02 09:50:53;;;;;;;3.70;2.07;;;;;;;3.55;100.00;97491.38;5070093;28;20231;-83
2021/12/02 09:53:24;;;;;;;5.03;2.90;;;;;;;3.60;100.00;97484.09;5068032;28;20203;-83
2021/12/02 09:56:07;;;;;;;3.30;3.00;;;;;;;3.67;100.00;97485.38;5065333;28;20192;-83
2021/12/02 09:58:37;;;;;;;6.63;3.80;;;;;;;3.47;100.00;97483.16;5070633;28;20255;-84
2021/12/02 10:01:09;;;;;;;4.17;2.03;;;;;;;3.68;100.00;97492.31;5069983;28;20196;-83
2021/12/02 10:03:40;;;;;;;3.43;2.50;;;;;;;3.73;100.00;97491.06;5073835;28;20218;-83
2021/12/02 10:06:14;;;;;;;13.50;10.97;;;;;;;3.51;100.00;97485.50;5069789;28;20203;-83
2021/12/02 10:08:51;;;;;;;3.40;2.70;;;;;;;3.50;100.00;97477.75;5067992;28;20227;-83
2021/12/02 10:11:32;;;;;;;3.47;2.07;;;;;;;3.54;100.00;97480.06;5069351;28;20192;-83
2021/12/02 10:14:16;;;;;;;1.73;1.40;;;;;;;3.59;100.00;97477.19;5068305;28;20195;-83
2021/12/02 10:16:46;;;;;;;4.07;2.00;;;;;;;3.61;100.00;97485.75;5066972;28;20196;-83
2021/12/02 10:19:19;;;;;;;5.17;1.80;;;;;;;3.52;100.00;97470.63;4988237;28;20203;-83
2021/12/02 10:21:53;;;;;;;3.37;1.90;;;;;;;3.48;100.00;97475.22;4989712;28;20206;-83
2021/12/02 10:24:25;;;;;;;3.97;2.10;;;;;;;3.64;100.00;97473.31;4984448;28;20272;-83
2021/12/02 10:26:56;;;;;;;3.50;1.93;;;;;;;3.78;100.00;97469.00;4987173;28;20191;-83
2021/12/02 10:29:47;;;;;;;3.00;1.90;;;;;;;3.72;100.00;97478.06;4991988;28;20281;-85
2021/12/02 10:32:21;;;;;;;4.83;1.93;;;;;;;3.83;100.00;97474.75;4989469;28;20217;-83
2021/12/02 10:34:54;;;;;;;3.20;1.90;;;;;;;3.95;100.00;97485.28;4931942;29;20205;-83
2021/12/02 10:37:24;;;;;;;4.80;2.30;;;;;;;3.90;100.00;97479.50;4953837;28;20203;-83
2021/12/02 10:39:58;;;;;;;3.93;2.30;;;;;;;4.09;100.00;97488.81;4968332;28;20204;-83
2021/12/02 10:42:27;;;;;;;5.10;2.10;;;;;;;4.10;100.00;97498.34;4971137;28;20205;-83
2021/12/02 10:45:02;;;;;;;5.23;2.60;;;;;;;4.13;100.00;97483.25;4940444;28;20208;-83
2021/12/02 10:47:31;;;;;;;4.57;2.43;;;;;;;3.97;100.00;97479.97;4973920;28;20200;-83
2021/12/02 10:50:01;;;;;;;4.10;2.50;;;;;;;4.01;100.00;97477.03;4966024;28;20239;-83
2021/12/02 10:52:33;;;;;;;3.40;2.60;;;;;;;4.11;100.00;97481.69;4987023;28;20197;-82
2021/12/02 10:55:05;;;;;;;3.80;2.63;;;;;;;4.00;100.00;97479.75;4966167;28;20211;-83
2021/12/02 10:57:35;;;;;;;6.67;2.47;;;;;;;4.00;100.00;97483.22;4971003;28;20202;-82
2021/12/02 11:00:09;;;;;;;5.83;2.53;;;;;;;4.09;100.00;97483.56;4985037;28;20200;-83
2021/12/02 11:02:40;;;;;;;4.20;1.93;;;;;;;4.25;100.00;97481.66;4991829;28;20195;-83
2021/12/02 11:05:19;;;;;;;5.87;2.60;;;;;;;4.35;100.00;97481.88;4991703;28;20293;-82
2021/12/02 11:07:54;;;;;;;4.43;2.20;;;;;;;4.34;100.00;97478.38;4992386;28;20195;-83
2021/12/02 11:10:22;;;;;;;6.63;2.60;;;;;;;4.43;100.00;97479.56;4991554;28;20227;-82
2021/12/02 11:12:54;;;;;;;3.13;2.13;;;;;;;4.51;100.00;97469.41;4993876;28;20203;-83
2021/12/02 11:15:26;;;;;;;4.57;2.73;;;;;;;4.51;100.00;97477.28;4986039;28;20210;-84
2021/12/02 11:17:57;;;;;;;3.53;2.37;;;;;;;4.51;100.00;97472.88;4988652;28;20199;-83
2021/12/02 11:20:28;;;;;;;3.50;2.20;;;;;;;4.53;100.00;97472.78;5003072;28;20201;-83
2021/12/02 11:23:02;;;;;;;3.07;2.50;;;;;;;4.38;100.00;97474.63;5011179;28;20203;-83
2021/12/02 11:25:31;;;;;;;3.57;2.43;;;;;;;4.35;100.00;97469.63;5015713;28;20220;-83
2021/12/02 11:28:05;;;;;;;3.43;2.20;;;;;;;4.34;100.00;97470.53;4956085;28;20206;-83
2021/12/02 11:30:37;;;;;;;4.00;2.40;;;;;;;4.45;100.00;97465.44;4951478;28;20215;-83
2021/12/02 11:33:32;;;;;;;2.60;2.20;;;;;;;4.53;100.00;97470.16;4954855;28;20208;-84
2021/12/02 11:36:00;;;;;;;2.73;2.33;;;;;;;4.66;100.00;97472.81;4953714;28;20202;-84
2021/12/02 11:38:29;;;;;;;4.83;2.60;;;;;;;4.69;100.00;97483.09;4967539;28;20199;-83
2021/12/02 11:41:00;;;;;;;4.30;2.30;;;;;;;4.87;100.00;97477.44;4989170;28;20191;-84
2021/12/02 11:43:31;;;;;;;4.67;2.60;;;;;;;4.86;100.00;97470.50;4994671;28;20191;-84
2021/12/02 11:46:02;;;;;;;4.00;2.50;;;;;;;4.87;100.00;97477.44;5025306;28;20195;-84
2021/12/02 11:48:33;;;;;;;5.53;2.30;;;;;;;5.18;100.00;97465.66;5072916;28;20281;-84
2021/12/02 11:51:07;;;;;;;2.97;2.47;;;;;;;5.23;100.00;97461.91;5069873;28;20236;-84
2021/12/02 11:53:35;;;;;;;3.53;2.27;;;;;;;5.04;100.00;97465.78;5067942;28;20200;-84